Time;durP1;ratioP1;P1;durP2;ratioP2;P2;SDS_P1;SDS_P2;PMS_P1;PMS_P2;Temp;Humidity;BMP_temperature;BMP_pressure;BME280_temperature;BME280_humidity;BME280_pressure;Samples;Min_cycle;Max_cycle;Signal;HPM_P1;HPM_P2
2020/12/14 00:00:16;;;;;;;58.40;54.00;;;;;;;13.95;37.36;100031.41;4467472;32;33982;-85
2020/12/14 00:02:43;;;;;;;58.78;54.25;;;;;;;11.47;43.24;100035.62;4454673;32;33192;-85
2020/12/14 00:05:11;;;;;;;58.30;53.97;;;;;;;10.89;44.65;100041.63;4467454;32;34945;-85
2020/12/14 00:07:38;;;;;;;57.10;52.97;;;;;;;10.90;44.75;100037.25;4467363;32;33831;-84
2020/12/14 00:10:06;;;;;;;59.30;54.67;;;;;;;12.57;40.78;100043.47;4469109;32;33706;-85
2020/12/14 00:12:34;;;;;;;57.35;52.95;;;;;;;13.26;39.08;100047.13;4467492;32;33971;-84
2020/12/14 00:15:03;;;;;;;57.35;52.97;;;;;;;13.43;38.59;100047.37;4467578;32;34140;-84
2020/12/14 00:17:30;;;;;;;58.60;54.15;;;;;;;13.61;38.18;100047.59;4454514;32;33388;-85
2020/12/14 00:19:57;;;;;;;58.33;54.03;;;;;;;12.97;39.47;100049.88;4468706;32;33930;-85
2020/12/14 00:22:28;;;;;;;57.75;53.47;;;;;;;13.25;39.04;100061.13;4468647;32;33960;-85
2020/12/14 00:24:56;;;;;;;57.40;53.08;;;;;;;13.47;38.62;100071.69;4468614;32;34167;-86
2020/12/14 00:27:23;;;;;;;58.90;54.38;;;;;;;13.59;38.25;100065.09;4468608;32;33834;-85
2020/12/14 00:29:50;;;;;;;58.85;54.17;;;;;;;13.48;38.78;100063.78;4454668;32;33854;-84
2020/12/14 00:32:17;;;;;;;58.30;54.08;;;;;;;13.47;38.79;100069.06;4467223;32;34049;-84
2020/12/14 00:34:45;;;;;;;58.70;54.28;;;;;;;13.49;38.83;100060.22;4454525;32;33907;-84
2020/12/14 00:37:12;;;;;;;57.08;52.97;;;;;;;13.73;38.18;100059.34;4454060;32;33159;-85
2020/12/14 00:39:39;;;;;;;58.15;53.85;;;;;;;13.60;38.24;100066.81;4468447;32;34398;-85
2020/12/14 00:42:06;;;;;;;55.53;51.72;;;;;;;13.36;38.76;100072.94;4454816;32;33716;-85
2020/12/14 00:44:33;;;;;;;53.83;50.22;;;;;;;13.22;39.11;100069.09;4466605;32;33977;-86
2020/12/14 00:47:01;;;;;;;54.22;50.42;;;;;;;13.63;38.09;100083.28;4454492;32;33635;-85
2020/12/14 00:49:28;;;;;;;54.28;50.58;;;;;;;13.43;38.27;100083.16;4468777;32;33223;-85
2020/12/14 00:51:55;;;;;;;53.92;50.25;;;;;;;13.58;37.93;100089.59;4467136;32;32074;-84
2020/12/14 00:54:22;;;;;;;54.97;51.20;;;;;;;13.72;37.68;100094.31;4468553;32;34568;-84
2020/12/14 00:56:49;;;;;;;53.50;49.95;;;;;;;13.59;37.56;100094.78;4468367;32;33794;-85
2020/12/14 00:59:16;;;;;;;54.33;50.58;;;;;;;13.69;37.52;100092.66;4466863;32;34381;-85
2020/12/14 01:01:44;;;;;;;53.75;50.12;;;;;;;13.53;37.66;100095.00;4453860;32;33908;-84
2020/12/14 01:04:11;;;;;;;53.63;50.10;;;;;;;13.19;38.32;100101.47;4441058;32;33236;-85
2020/12/14 01:06:38;;;;;;;52.22;48.83;;;;;;;12.95;38.84;100111.87;4453793;32;33754;-85
2020/12/14 01:09:05;;;;;;;53.72;50.05;;;;;;;13.66;37.37;100119.81;4466658;32;32251;-85
2020/12/14 01:11:32;;;;;;;54.15;50.60;;;;;;;13.68;37.24;100119.75;4468022;32;33686;-85
2020/12/14 01:13:59;;;;;;;53.38;49.75;;;;;;;14.17;36.12;100110.00;4466336;32;33333;-84
2020/12/14 01:16:27;;;;;;;52.95;49.47;;;;;;;13.53;37.37;100118.56;4467852;32;33764;-85
2020/12/14 01:18:54;;;;;;;53.10;49.70;;;;;;;13.42;37.37;100118.97;4453675;32;33491;-85
2020/12/14 01:21:22;;;;;;;53.60;50.12;;;;;;;13.27;37.84;100120.34;4466335;32;33791;-85
2020/12/14 01:23:50;;;;;;;53.95;50.40;;;;;;;13.44;37.64;100114.53;4440831;32;33730;-84
2020/12/14 01:26:17;;;;;;;52.30;49.05;;;;;;;13.06;38.18;100123.72;4468002;32;33735;-85
2020/12/14 01:28:44;;;;;;;54.17;50.38;;;;;;;13.58;37.32;100121.03;4453795;32;31917;-85
2020/12/14 01:31:12;;;;;;;53.28;49.78;;;;;;;13.64;37.06;100126.88;4467665;32;33441;-83
2020/12/14 01:33:39;;;;;;;53.40;49.85;;;;;;;13.64;37.18;100121.66;4467744;32;34883;-85
2020/12/14 01:36:07;;;;;;;54.17;50.58;;;;;;;13.43;37.46;100123.28;4455860;32;33521;-84
2020/12/14 01:38:34;;;;;;;52.53;49.13;;;;;;;13.45;37.46;100128.47;4467572;32;33337;-85
2020/12/14 01:41:01;;;;;;;52.90;49.40;;;;;;;13.25;37.62;100126.53;4453409;32;32431;-84
2020/12/14 01:43:28;;;;;;;53.53;50.12;;;;;;;13.36;37.59;100140.97;4453351;32;32545;-85
2020/12/14 01:45:56;;;;;;;52.83;49.47;;;;;;;13.23;37.78;100150.16;4466027;32;32784;-84
2020/12/14 01:48:25;;;;;;;52.62;49.33;;;;;;;13.16;37.69;100143.41;4453115;32;33257;-85
2020/12/14 01:50:53;;;;;;;52.83;49.53;;;;;;;13.12;37.81;100149.66;4466049;32;34681;-84
2020/12/14 01:53:22;;;;;;;52.40;48.95;;;;;;;12.94;38.00;100146.78;4453468;32;34809;-85
2020/12/14 01:55:53;;;;;;;53.00;49.65;;;;;;;13.11;37.63;100145.31;4466217;32;34591;-84
2020/12/14 01:58:22;;;;;;;52.03;48.72;;;;;;;13.11;37.44;100142.72;4468339;32;33295;-85
2020/12/14 02:00:49;;;;;;;53.63;50.10;;;;;;;13.69;36.35;100134.53;4468668;32;33803;-85
2020/12/14 02:03:18;;;;;;;52.25;48.85;;;;;;;13.50;36.59;100137.00;4468624;32;34017;-84
2020/12/14 02:05:46;;;;;;;52.83;49.40;;;;;;;13.56;36.36;100141.16;4468683;32;33361;-85
2020/12/14 02:08:13;;;;;;;53.22;49.78;;;;;;;13.58;36.47;100141.97;4470607;32;33407;-84
2020/12/14 02:10:40;;;;;;;53.17;49.78;;;;;;;13.61;36.41;100144.47;4471891;32;34143;-85
2020/12/14 02:13:07;;;;;;;53.42;50.03;;;;;;;13.79;36.14;100154.25;4469704;32;33911;-85
2020/12/14 02:15:34;;;;;;;52.28;48.97;;;;;;;13.91;35.82;100146.84;4455319;32;34509;-85
2020/12/14 02:18:02;;;;;;;52.85;49.55;;;;;;;13.71;36.32;100153.69;4469675;32;34167;-85
2020/12/14 02:20:30;;;;;;;52.62;49.38;;;;;;;13.75;36.12;100157.03;4467983;32;32818;-84
2020/12/14 02:22:57;;;;;;;53.75;50.17;;;;;;;13.68;36.46;100156.41;4455185;32;33244;-85
2020/12/14 02:25:24;;;;;;;53.72;50.22;;;;;;;13.69;36.36;100151.12;4468301;32;33607;-85
2020/12/14 02:27:51;;;;;;;54.40;50.78;;;;;;;13.92;36.03;100153.78;4468309;32;33328;-85
2020/12/14 02:30:18;;;;;;;54.17;50.58;;;;;;;13.75;36.38;100157.03;4467977;32;34010;-84
2020/12/14 02:32:46;;;;;;;53.38;49.92;;;;;;;13.60;36.57;100154.09;4468225;32;34159;-84
2020/12/14 02:35:14;;;;;;;54.40;50.85;;;;;;;13.50;36.77;100150.94;4468056;32;33892;-86
2020/12/14 02:37:41;;;;;;;54.08;50.45;;;;;;;13.25;37.40;100155.31;4467993;32;34525;-84
2020/12/14 02:40:08;;;;;;;54.20;50.63;;;;;;;12.72;38.58;100157.09;4467950;32;32508;-85
2020/12/14 02:42:35;;;;;;;54.35;50.75;;;;;;;12.99;37.93;100160.56;4455217;32;32820;-85
2020/12/14 02:45:03;;;;;;;53.80;50.03;;;;;;;13.29;37.53;100165.59;4468137;32;33336;-85
2020/12/14 02:47:30;;;;;;;53.25;49.72;;;;;;;13.51;37.08;100167.50;4469410;32;34896;-84
2020/12/14 02:49:57;;;;;;;53.80;50.15;;;;;;;13.72;36.72;100154.53;4467957;32;33468;-84
2020/12/14 02:52:24;;;;;;;53.55;50.08;;;;;;;13.82;36.28;100155.91;4468353;32;34432;-84
2020/12/14 02:54:51;;;;;;;54.75;51.17;;;;;;;13.77;36.17;100165.69;4469600;32;34272;-84
2020/12/14 02:57:19;;;;;;;53.35;49.85;;;;;;;13.41;36.83;100174.81;4469349;32;33502;-84
2020/12/14 02:59:46;;;;;;;53.70;50.00;;;;;;;13.00;37.78;100177.97;4455243;32;34844;-85
2020/12/14 03:02:13;;;;;;;54.47;50.65;;;;;;;12.84;38.01;100174.12;4455076;32;33988;-84
2020/12/14 03:04:41;;;;;;;54.15;50.55;;;;;;;13.10;37.65;100178.50;4442595;32;34544;-84
2020/12/14 03:07:08;;;;;;;53.33;49.83;;;;;;;13.22;37.38;100185.06;4467642;32;33271;-84
2020/12/14 03:09:35;;;;;;;54.55;50.63;;;;;;;12.83;38.17;100190.72;4467759;32;33748;-85
2020/12/14 03:12:03;;;;;;;54.00;50.20;;;;;;;13.41;37.06;100193.16;4455477;32;34836;-85
2020/12/14 03:14:30;;;;;;;52.10;48.80;;;;;;;13.40;36.93;100196.69;4468266;32;33938;-84
2020/12/14 03:16:57;;;;;;;53.28;49.88;;;;;;;13.74;36.35;100200.69;4467997;32;33367;-85
2020/12/14 03:19:25;;;;;;;53.85;50.45;;;;;;;13.58;36.65;100200.41;4467967;32;34437;-84
2020/12/14 03:21:52;;;;;;;53.22;49.65;;;;;;;13.44;37.05;100202.66;4469741;32;34415;-84
2020/12/14 03:24:20;;;;;;;53.00;49.60;;;;;;;13.05;37.84;100200.50;4467693;32;34361;-85
2020/12/14 03:26:48;;;;;;;52.55;49.22;;;;;;;13.48;36.85;100197.28;4467752;32;33528;-84
2020/12/14 03:29:16;;;;;;;51.37;48.22;;;;;;;13.38;37.18;100198.50;4467663;32;33597;-84
2020/12/14 03:31:43;;;;;;;53.50;50.00;;;;;;;13.68;36.62;100208.75;4467663;32;35030;-85
2020/12/14 03:34:11;;;;;;;52.78;49.20;;;;;;;13.77;36.32;100211.03;4467474;32;34053;-84
2020/12/14 03:36:38;;;;;;;53.22;49.83;;;;;;;13.56;36.84;100211.84;4441692;32;33029;-85
2020/12/14 03:39:07;;;;;;;53.72;50.33;;;;;;;13.89;36.20;100209.75;4467354;32;33812;-85
2020/12/14 03:41:34;;;;;;;53.67;50.20;;;;;;;13.41;37.16;100210.63;4455606;32;33286;-85
2020/12/14 03:44:01;;;;;;;53.53;50.12;;;;;;;13.81;36.34;100217.03;4467626;32;33660;-84
2020/12/14 03:46:31;;;;;;;53.20;49.88;;;;;;;13.57;36.92;100224.03;4441798;32;32179;-85
2020/12/14 03:48:59;;;;;;;53.28;49.88;;;;;;;13.81;36.33;100214.41;4467360;32;34462;-85
2020/12/14 03:51:26;;;;;;;53.63;50.22;;;;;;;13.68;36.57;100212.25;4467241;32;33736;-85
2020/12/14 03:53:53;;;;;;;53.72;50.22;;;;;;;13.68;36.70;100221.84;4454780;32;34369;-85
2020/12/14 03:56:22;;;;;;;53.65;50.03;;;;;;;13.64;36.61;100225.50;4454849;32;33203;-85
2020/12/14 03:58:49;;;;;;;52.75;49.45;;;;;;;13.53;36.78;100224.13;4467910;32;34030;-85
2020/12/14 04:01:22;;;;;;;52.85;49.55;;;;;;;13.48;36.88;100225.19;4454731;32;34923;-85
2020/12/14 04:03:50;;;;;;;53.15;49.75;;;;;;;13.34;37.13;100228.28;4467763;32;33429;-85
2020/12/14 04:06:18;;;;;;;53.42;50.03;;;;;;;13.35;37.31;100237.84;4454720;32;33580;-85
2020/12/14 04:08:46;;;;;;;53.28;49.95;;;;;;;13.27;37.44;100235.47;4469537;32;34729;-84
2020/12/14 04:11:14;;;;;;;54.85;51.17;;;;;;;13.37;37.06;100238.66;4467911;32;33897;-84
2020/12/14 04:13:41;;;;;;;52.92;49.60;;;;;;;13.31;37.34;100247.53;4468776;32;33717;-85
2020/12/14 04:16:09;;;;;;;53.72;50.22;;;;;;;13.44;37.22;100240.16;4454822;32;33445;-85
2020/12/14 04:18:37;;;;;;;53.50;50.00;;;;;;;13.77;36.54;100242.47;4454114;32;33790;-85
2020/12/14 04:21:04;;;;;;;53.72;50.28;;;;;;;13.81;36.38;100248.47;4453865;32;34252;-85
2020/12/14 04:23:31;;;;;;;53.30;49.80;;;;;;;13.68;36.52;100251.53;4467825;32;33874;-85
2020/12/14 04:25:58;;;;;;;53.22;49.80;;;;;;;13.81;36.21;100262.44;4467735;32;34169;-85
2020/12/14 04:28:25;;;;;;;52.67;49.28;;;;;;;13.43;36.85;100264.63;4467189;32;34643;-84
2020/12/14 04:30:52;;;;;;;52.60;49.17;;;;;;;13.58;36.80;100278.94;4454377;32;33891;-85
2020/12/14 04:33:20;;;;;;;53.67;50.17;;;;;;;13.38;37.26;100273.56;4471856;32;33242;-84
2020/12/14 04:35:47;;;;;;;53.05;49.55;;;;;;;13.41;37.07;100269.03;4460976;32;189288;-84
2020/12/14 04:38:14;;;;;;;53.67;50.28;;;;;;;13.70;36.46;100267.19;4468823;32;34264;-85
2020/12/14 04:40:42;;;;;;;52.60;49.17;;;;;;;14.12;35.49;100274.41;4468383;32;34552;-85
2020/12/14 04:43:09;;;;;;;53.58;50.05;;;;;;;13.33;36.97;100284.13;4467136;32;33052;-85
2020/12/14 04:45:37;;;;;;;54.40;50.72;;;;;;;13.64;36.52;100290.94;4467115;32;34000;-84
2020/12/14 04:48:04;;;;;;;53.75;50.12;;;;;;;14.03;35.82;100287.84;4454229;32;32382;-85
2020/12/14 04:50:31;;;;;;;53.38;49.88;;;;;;;13.62;36.47;100296.25;4466899;32;33853;-85
2020/12/14 04:53:03;;;;;;;53.13;49.67;;;;;;;12.94;37.76;100301.09;4466679;32;33694;-84
2020/12/14 04:55:35;;;;;;;52.42;49.10;;;;;;;13.47;36.83;100302.88;4453937;32;32818;-85
2020/12/14 04:58:06;;;;;;;53.53;49.83;;;;;;;13.25;37.15;100310.53;4466905;32;33831;-84
2020/12/14 05:00:34;;;;;;;;;;;;;;;13.64;36.43;100314.53;4454473;32;33947;-85
2020/12/14 05:03:01;;;;;;;53.63;50.00;;;;;;;13.75;36.27;100314.13;4454071;32;33711;-84
2020/12/14 05:05:30;;;;;;;54.45;50.75;;;;;;;13.77;36.34;100314.97;4467817;32;33639;-84
2020/12/14 05:07:57;;;;;;;52.92;49.47;;;;;;;12.99;37.74;100324.47;4453977;32;33561;-85
2020/12/14 05:10:28;;;;;;;54.35;50.67;;;;;;;13.46;36.88;100326.50;4453763;32;33957;-85
2020/12/14 05:12:56;;;;;;;54.80;51.17;;;;;;;13.49;36.83;100334.22;4453821;32;34833;-84
2020/12/14 05:15:27;;;;;;;53.17;49.78;;;;;;;13.70;36.28;100332.66;4453689;32;33395;-84
2020/12/14 05:18:11;;;;;;;53.78;50.08;;;;;;;13.06;37.55;100333.84;4467731;32;33919;-85
2020/12/14 05:20:40;;;;;;;54.72;50.97;;;;;;;13.12;37.44;100343.25;4466506;32;33015;-84
2020/12/14 05:23:09;;;;;;;52.80;49.40;;;;;;;13.13;37.47;100340.56;4468004;32;34093;-85
2020/12/14 05:25:36;;;;;;;54.47;50.83;;;;;;;13.23;37.15;100343.78;4466446;32;34460;-85
2020/12/14 05:28:16;;;;;;;53.72;50.12;;;;;;;13.00;37.65;100347.97;4453615;32;33125;-85
2020/12/14 05:30:45;;;;;;;54.15;50.28;;;;;;;13.38;36.89;100357.31;4466719;32;34257;-85
2020/12/14 05:33:19;;;;;;;55.10;51.17;;;;;;;13.03;37.59;100357.50;4469286;32;33743;-85
2020/12/14 05:35:47;;;;;;;53.80;50.17;;;;;;;13.25;37.31;100357.66;4450799;32;32728;-84
2020/12/14 05:38:26;;;;;;;55.20;51.58;;;;;;;13.41;36.98;100365.03;4465017;32;33388;-85
2020/12/14 05:40:54;;;;;;;54.28;50.63;;;;;;;13.16;37.35;100364.03;4469898;32;33179;-84
2020/12/14 05:43:23;;;;;;;55.10;51.40;;;;;;;13.43;36.82;100369.31;4469991;32;34767;-84
2020/12/14 05:45:52;;;;;;;55.25;51.55;;;;;;;13.53;36.55;100369.88;4468774;32;34445;-84
2020/12/14 05:48:25;;;;;;;55.10;51.50;;;;;;;13.46;36.65;100371.84;4468976;32;33786;-83
2020/12/14 05:50:58;;;;;;;56.08;51.85;;;;;;;13.34;37.06;100374.81;4457578;32;34258;-84
2020/12/14 05:53:40;;;;;;;56.17;52.45;;;;;;;13.45;36.80;100377.13;4470132;32;34972;-84
2020/12/14 05:56:08;;;;;;;54.80;51.30;;;;;;;13.41;36.97;100378.97;4468115;32;34579;-84
2020/12/14 05:58:37;;;;;;;55.47;51.67;;;;;;;13.44;36.87;100384.12;4455369;32;34767;-85
2020/12/14 06:01:07;;;;;;;54.67;50.97;;;;;;;13.45;36.75;100384.97;4468064;32;34121;-85
2020/12/14 06:03:35;;;;;;;53.22;49.55;;;;;;;13.36;36.90;100383.50;4455154;32;33081;-84
2020/12/14 06:06:08;;;;;;;54.17;50.58;;;;;;;13.34;37.02;100391.38;4468149;32;33479;-85
2020/12/14 06:08:45;;;;;;;54.80;51.03;;;;;;;13.58;36.51;100391.53;4468011;32;33855;-85
2020/12/14 06:11:16;;;;;;;54.95;51.20;;;;;;;13.73;36.27;100392.75;4469265;32;33832;-85
2020/12/14 06:13:51;;;;;;;53.20;49.65;;;;;;;13.44;36.74;100399.84;4469361;32;33762;-84
2020/12/14 06:16:20;;;;;;;54.97;50.97;;;;;;;13.05;37.49;100401.91;4468134;32;32980;-85
2020/12/14 06:18:48;;;;;;;54.80;50.85;;;;;;;13.01;37.63;100417.69;4467809;32;34362;-85
2020/12/14 06:21:22;;;;;;;56.05;52.15;;;;;;;13.38;36.85;100418.34;4468014;32;33907;-85
2020/12/14 06:23:50;;;;;;;56.72;52.70;;;;;;;13.65;36.22;100419.22;4468085;32;34294;-85
2020/12/14 06:26:21;;;;;;;54.08;50.38;;;;;;;13.62;36.46;100419.31;4455365;32;33383;-85
2020/12/14 06:28:54;;;;;;;55.40;51.50;;;;;;;13.62;36.47;100421.09;4467873;32;33275;-85
2020/12/14 06:31:38;;;;;;;58.05;54.05;;;;;;;13.81;36.04;100419.56;4467469;32;34956;-85
2020/12/14 06:34:31;;;;;;;55.75;51.67;;;;;;;13.82;36.04;100423.03;4467729;32;33731;-84
2020/12/14 06:36:59;;;;;;;55.17;51.28;;;;;;;13.55;36.59;100425.66;4468918;32;34347;-85
2020/12/14 06:39:29;;;;;;;54.85;50.85;;;;;;;13.61;36.71;100422.81;4455104;32;34113;-87
2020/12/14 06:42:11;;;;;;;54.60;50.90;;;;;;;13.25;37.55;100430.06;4467397;32;34730;-86
2020/12/14 06:44:44;;;;;;;55.15;51.22;;;;;;;13.77;36.42;100428.41;4467381;32;33031;-87
2020/12/14 06:47:15;;;;;;;55.22;51.17;;;;;;;13.78;36.34;100434.53;4455184;32;33089;-86
2020/12/14 06:49:45;;;;;;;55.67;51.88;;;;;;;14.09;35.76;100433.47;4467607;32;33988;-85
2020/12/14 06:52:12;;;;;;;54.83;51.13;;;;;;;14.05;35.94;100431.88;4454883;32;32573;-86
2020/12/14 06:54:41;;;;;;;56.25;52.10;;;;;;;13.52;36.88;100437.09;4454887;32;34736;-86
2020/12/14 06:57:12;;;;;;;53.75;50.15;;;;;;;14.08;35.62;100434.38;4467871;32;34284;-87
2020/12/14 06:59:50;;;;;;;55.25;51.53;;;;;;;14.10;35.48;100424.72;4468000;32;34499;-89
2020/12/14 07:02:18;;;;;;;55.25;51.42;;;;;;;13.46;36.80;100432.03;4468297;32;34021;-85
2020/12/14 07:04:46;;;;;;;55.47;51.40;;;;;;;13.31;37.24;100435.97;4468510;32;34688;-84
2020/12/14 07:07:13;;;;;;;53.90;50.20;;;;;;;13.48;36.88;100440.72;4470078;32;32159;-83
2020/12/14 07:09:41;;;;;;;52.83;49.35;;;;;;;13.57;36.41;100447.41;4457268;32;33733;-84
2020/12/14 07:12:10;;;;;;;56.45;52.62;;;;;;;13.24;37.28;100457.13;4469452;32;34580;-85
2020/12/14 07:14:59;;;;;;;54.38;50.67;;;;;;;13.86;36.14;100458.69;4467234;32;32291;-85
2020/12/14 07:17:28;;;;;;;54.65;50.75;;;;;;;14.00;35.65;100459.09;4467241;32;33949;-85
2020/12/14 07:19:59;;;;;;;54.35;50.65;;;;;;;13.85;35.82;100454.34;4467284;32;34551;-84
2020/12/14 07:22:47;;;;;;;54.55;50.90;;;;;;;14.15;35.20;100462.94;4454360;32;33186;-84
2020/12/14 07:25:22;;;;;;;54.22;50.63;;;;;;;14.19;35.32;100458.47;4467003;32;34697;-85
2020/12/14 07:27:50;;;;;;;55.83;51.88;;;;;;;13.62;36.30;100455.97;4467054;32;31600;-85
2020/12/14 07:30:19;;;;;;;56.60;52.35;;;;;;;13.92;35.54;100458.50;4466814;32;34916;-85
2020/12/14 07:32:47;;;;;;;55.45;51.72;;;;;;;13.02;37.48;100458.63;4454314;32;32440;-85
2020/12/14 07:35:15;;;;;;;55.08;51.25;;;;;;;13.64;36.32;100461.16;4452901;32;33072;-85
2020/12/14 07:37:42;;;;;;;54.90;50.75;;;;;;;13.95;35.68;100461.00;4456502;32;34312;-85
2020/12/14 07:40:10;;;;;;;55.58;51.78;;;;;;;14.50;34.59;100457.37;4467032;32;33897;-85
2020/12/14 07:42:43;;;;;;;54.95;51.30;;;;;;;14.11;35.21;100463.97;4441533;32;32554;-85
2020/12/14 07:45:21;;;;;;;54.95;51.08;;;;;;;13.99;35.43;100446.91;4467163;32;33203;-85
2020/12/14 07:47:51;;;;;;;54.78;50.75;;;;;;;14.20;35.17;100454.94;4467276;32;33898;-85
2020/12/14 07:50:23;;;;;;;56.15;52.17;;;;;;;13.84;35.69;100453.50;4467049;32;34752;-84
2020/12/14 07:52:53;;;;;;;55.45;51.63;;;;;;;14.09;35.29;100460.53;4441187;32;32706;-85
2020/12/14 07:55:26;;;;;;;55.38;51.58;;;;;;;13.78;35.81;100453.69;4467108;32;33991;-85
2020/12/14 07:57:54;;;;;;;55.97;51.67;;;;;;;13.49;36.18;100454.66;4466967;32;33581;-86
2020/12/14 08:00:23;;;;;;;55.83;51.95;;;;;;;13.85;35.60;100462.22;4454119;32;32770;-85
2020/12/14 08:02:55;;;;;;;55.83;51.65;;;;;;;13.92;35.56;100460.25;4466905;32;34873;-85
2020/12/14 08:05:22;;;;;;;55.22;51.55;;;;;;;13.67;35.84;100456.69;4467363;32;33714;-85
2020/12/14 08:07:51;;;;;;;56.47;51.63;;;;;;;13.52;36.19;100463.28;4468296;32;32839;-86
2020/12/14 08:10:29;;;;;;;56.67;52.45;;;;;;;12.25;39.22;100475.62;4454415;32;33917;-84
2020/12/14 08:12:57;;;;;;;55.60;51.53;;;;;;;12.78;38.16;100475.06;4467269;32;34106;-85
2020/12/14 08:15:26;;;;;;;57.88;53.70;;;;;;;13.40;36.76;100465.41;4467281;32;33749;-84
2020/12/14 08:17:53;;;;;;;55.58;51.67;;;;;;;13.34;36.96;100475.13;4454161;32;33271;-86
2020/12/14 08:20:26;;;;;;;55.47;50.90;;;;;;;13.43;36.54;100468.78;4466885;32;33554;-84
2020/12/14 08:22:55;;;;;;;56.22;51.97;;;;;;;13.66;36.03;100465.44;4467929;32;33639;-85
2020/12/14 08:25:30;;;;;;;55.60;51.17;;;;;;;13.51;36.52;100468.56;4454839;32;33769;-85
2020/12/14 08:27:59;;;;;;;56.33;52.33;;;;;;;13.81;35.91;100474.56;4467667;32;32982;-84
2020/12/14 08:30:26;;;;;;;55.70;51.80;;;;;;;13.28;36.92;100477.94;4441810;32;33402;-85
2020/12/14 08:33:19;;;;;;;56.17;52.08;;;;;;;13.39;36.88;100476.78;4441049;32;33332;-85
2020/12/14 08:35:49;;;;;;;56.78;52.70;;;;;;;13.29;37.19;100476.16;4448349;32;35278;-84
2020/12/14 08:38:18;;;;;;;56.88;52.47;;;;;;;13.38;37.06;100475.09;4450544;32;31994;-85
2020/12/14 08:41:01;;;;;;;55.47;51.70;;;;;;;12.77;38.22;100484.63;4466563;32;32469;-85
2020/12/14 08:43:33;;;;;;;55.10;51.20;;;;;;;13.12;37.35;100495.88;4466939;32;34478;-85
2020/12/14 08:46:16;;;;;;;54.90;50.97;;;;;;;13.64;36.46;100489.94;4466506;32;32255;-85
2020/12/14 08:48:49;;;;;;;55.63;51.78;;;;;;;13.65;36.12;100482.06;4453609;32;33578;-85
2020/12/14 08:51:19;;;;;;;57.95;52.80;;;;;;;13.48;36.49;100487.84;4466319;32;35329;-84
2020/12/14 08:53:49;;;;;;;58.33;53.75;;;;;;;13.38;36.90;100493.41;4466377;32;32957;-85
2020/12/14 08:56:19;;;;;;;55.58;51.75;;;;;;;13.32;36.91;100494.37;4467478;32;34208;-85
2020/12/14 08:58:58;;;;;;;57.90;53.58;;;;;;;13.56;36.46;100499.81;4466333;32;33258;-85
2020/12/14 09:01:31;;;;;;;58.67;54.53;;;;;;;13.77;36.04;100495.66;4466368;32;33754;-85
2020/12/14 09:04:02;;;;;;;55.75;51.80;;;;;;;13.71;36.19;100504.56;4466369;32;35315;-85
2020/12/14 09:06:35;;;;;;;58.15;53.90;;;;;;;13.27;37.28;100506.75;4467432;32;34590;-84
2020/12/14 09:09:13;;;;;;;56.75;52.58;;;;;;;13.74;36.09;100507.09;4468585;32;32502;-84
2020/12/14 09:11:46;;;;;;;58.67;54.58;;;;;;;12.98;37.61;100513.72;4467711;32;33543;-83
2020/12/14 09:14:44;;;;;;;56.53;52.42;;;;;;;13.06;37.75;100510.88;4469359;32;35044;-84
2020/12/14 09:17:14;;;;;;;57.45;53.20;;;;;;;13.13;37.55;100504.56;4466298;32;33364;-83
2020/12/14 09:19:48;;;;;;;57.90;53.17;;;;;;;13.64;36.60;100495.19;4468342;32;33674;-84
2020/12/14 09:22:22;;;;;;;57.00;52.92;;;;;;;13.84;36.15;100492.81;4468459;32;34049;-84
2020/12/14 09:24:49;;;;;;;57.35;53.05;;;;;;;13.52;36.66;100489.44;4468117;32;34071;-84
2020/12/14 09:27:17;;;;;;;57.90;53.38;;;;;;;13.64;36.47;100482.97;4455166;32;33265;-84
2020/12/14 09:29:45;;;;;;;57.50;53.10;;;;;;;13.93;35.83;100489.00;4468019;32;32069;-85
2020/12/14 09:32:13;;;;;;;57.75;53.13;;;;;;;13.84;36.07;100489.31;4467904;32;32924;-90
2020/12/14 09:34:41;;;;;;;58.45;54.05;;;;;;;13.95;35.74;100487.19;4467692;32;34582;-88
2020/12/14 09:37:09;;;;;;;57.85;53.30;;;;;;;14.02;35.70;100478.22;4441736;32;32379;-89
2020/12/14 09:39:36;;;;;;;58.95;54.40;;;;;;;14.30;35.02;100485.16;4467754;32;33550;-88
2020/12/14 09:42:04;;;;;;;57.55;53.35;;;;;;;13.77;36.10;100480.78;4455626;32;33360;-88
2020/12/14 09:44:32;;;;;;;60.25;55.83;;;;;;;13.80;35.95;100479.84;4469254;32;34566;-85
2020/12/14 09:47:01;;;;;;;58.22;54.00;;;;;;;13.65;36.28;100476.84;4455608;32;33036;-86
2020/12/14 09:49:28;;;;;;;57.88;53.60;;;;;;;13.62;36.64;100474.28;4455724;32;34900;-85
2020/12/14 09:51:56;;;;;;;57.58;53.40;;;;;;;13.76;36.30;100475.59;4455279;32;34671;-86
2020/12/14 09:54:23;;;;;;;58.83;54.38;;;;;;;13.59;36.50;100482.25;4467914;32;34979;-86
2020/12/14 09:56:50;;;;;;;58.05;53.47;;;;;;;13.66;36.56;100481.13;4468023;32;33848;-90
2020/12/14 09:59:22;;;;;;;58.70;53.63;;;;;;;13.79;36.23;100481.63;4468870;32;34134;-88
2020/12/14 10:01:49;;;;;;;60.38;55.38;;;;;;;14.48;35.07;100472.34;4454436;32;34385;-89
2020/12/14 10:04:17;;;;;;;60.72;55.83;;;;;;;14.21;35.76;100477.59;4467450;32;33188;-89
2020/12/14 10:06:48;;;;;;;61.80;56.20;;;;;;;14.20;35.53;100476.75;4468602;32;33686;-89
2020/12/14 10:09:16;;;;;;;60.97;55.78;;;;;;;14.36;35.27;100482.31;4467805;32;33351;-89
2020/12/14 10:11:44;;;;;;;60.95;56.10;;;;;;;13.64;36.58;100476.84;4454648;32;33948;-89
2020/12/14 10:14:17;;;;;;;60.65;55.90;;;;;;;13.89;36.27;100487.41;4455071;32;32587;-87
2020/12/14 10:16:53;;;;;;;59.42;54.97;;;;;;;14.02;36.02;100480.84;4442206;32;34988;-88
2020/12/14 10:19:23;;;;;;;60.65;55.45;;;;;;;13.81;36.51;100484.19;4454805;32;32235;-87
2020/12/14 10:21:50;;;;;;;63.08;57.85;;;;;;;14.48;35.32;100473.19;4454345;32;34429;-89
2020/12/14 10:24:18;;;;;;;60.22;55.53;;;;;;;14.25;35.64;100466.09;4467357;32;33223;-88
2020/12/14 10:26:49;;;;;;;61.22;56.45;;;;;;;14.50;35.25;100471.34;4467232;32;34675;-87
2020/12/14 10:29:19;;;;;;;62.00;57.17;;;;;;;14.74;34.88;100468.78;4467998;32;33134;-87
2020/12/14 10:31:48;;;;;;;58.72;54.03;;;;;;;13.95;36.28;100471.50;4470926;32;33787;-88
2020/12/14 10:34:16;;;;;;;58.03;53.70;;;;;;;14.14;36.02;100465.62;4456336;32;34837;-86
2020/12/14 10:36:45;;;;;;;59.20;54.45;;;;;;;13.99;36.18;100465.22;4455349;32;33191;-88
2020/12/14 10:39:12;;;;;;;59.85;55.40;;;;;;;14.04;36.09;100472.97;4467213;32;33261;-89
2020/12/14 10:41:39;;;;;;;59.90;55.12;;;;;;;14.11;35.95;100474.44;4454456;32;33937;-88
2020/12/14 10:44:06;;;;;;;61.70;56.75;;;;;;;14.11;35.92;100478.84;4454836;32;33628;-88
2020/12/14 10:46:34;;;;;;;58.45;54.05;;;;;;;14.12;36.02;100478.78;4469571;32;33895;-89
2020/12/14 10:49:02;;;;;;;58.00;53.60;;;;;;;14.51;35.23;100474.84;4442729;32;32577;-87
2020/12/14 10:51:29;;;;;;;59.13;54.40;;;;;;;14.45;35.14;100470.66;4469050;32;34346;-89
2020/12/14 10:53:57;;;;;;;61.13;56.63;;;;;;;14.58;35.00;100471.06;4454316;32;32726;-88
2020/12/14 10:56:24;;;;;;;59.53;54.72;;;;;;;14.72;34.61;100469.75;4458601;32;33247;-88
2020/12/14 10:58:51;;;;;;;61.15;55.92;;;;;;;14.63;34.86;100469.16;4457852;32;32841;-88
2020/12/14 11:01:19;;;;;;;58.45;54.05;;;;;;;14.53;35.03;100468.63;4456714;32;33696;-89
2020/12/14 11:03:46;;;;;;;58.85;54.30;;;;;;;14.92;34.48;100472.50;4471065;32;33609;-90
2020/12/14 11:06:15;;;;;;;62.97;57.65;;;;;;;14.95;34.33;100469.75;4463650;32;33793;-86
2020/12/14 11:08:44;;;;;;;62.47;57.45;;;;;;;14.59;35.08;100471.94;4480691;32;34004;-87
2020/12/14 11:11:11;;;;;;;64.53;59.33;;;;;;;14.33;35.57;100478.94;4477825;32;34381;-87
2020/12/14 11:13:41;;;;;;;65.28;58.60;;;;;;;14.61;35.00;100475.34;4467544;32;33739;-89
2020/12/14 11:16:12;;;;;;;63.72;58.22;;;;;;;13.29;37.60;100484.87;4443193;32;33731;-88
2020/12/14 11:19:03;;;;;;;62.25;57.10;;;;;;;14.18;35.85;100489.03;4449397;32;33382;-88